Aqaba, Jordan

12:14 PM EEST on August 25, 2019 (GMT +0300)
Marine Science Station (MSS), Gulf of Aqaba, Jordan | | Change Station

Elev 20 ft 29.46 °N, 34.97 °E | Updated 25 seconds ago

Clear
Clear
96.8 °F
Feels Like 96 °F
N
10.5
Wind Variable Wind from West
Gusts 12.3 mph

Today
High -- | Low -- °F
--% Chance of Precip.
Yesterday
High -- | Low -- °F
Precip. -- in
Pressure 29.77 in
Visibility -9999.0 miles
Clouds
Heat Index 96 °F
Dew Point 58 °F
Humidity 28%
Rainfall 0.00 in
Snow Depth Not available.
6:13 AM 7:10 PM
Waning Crescent, 32% visible
METAR OJAQ 250900Z 34012KT CAVOK 36/16 Q1008 NOSIG
Pressure 29.77 in
Visibility -9999.0 miles
Clouds
Heat Index 96 °F
Dew Point 58 °F
Humidity 28%
Rainfall 0.00 in
Snow Depth Not available.
6:13 AM 7:10 PM
Waning Crescent, 32% visible
METAR OJAQ 250900Z 34012KT CAVOK 36/16 Q1008 NOSIG

Get Severe Weather Alerts

Thanks for signing up!

Be on the lookout for a verification email in your inbox.

You'll start receiving the daily forecast at 6 AM.

×

10-Day Weather Forecast

No radar image for this location.
×

Almanac

Astronomy

Aug. 25, 2019 Rise Set
Actual Time
Civil Twilight
Nautical Twilight
Astronomical Twilight
Moon
Length of Visible Light
Length of Day
Tomorrow will be .
, % of the Moon is Illuminated

Today's Extremes

Country Highs Country Lows

Community

WunderPhotos

Category 6

Welcome to Category 6. This is the collective home for Weather Underground's featured writeups by Dr. Jeff Masters (right), Bob Henson (left), Chris Burt, and other regular contributors.

Nearby

Air Quality

  Air Quality AQ Index Pollutant
Not available.

Snow Depth

Station Depth Elevation

Earthquake Activity

City Distance Mag. Time & Date
Minimum magnitude displayed is 2.5.

Coastal Water Temperatures

Place Temperature

Stations

Nearby Weather Stations

Station Location Temp. Windchill Dew Point Humidity Wind Precip. Elev Updated Type